Latest Weather Observations for St Lawrence

IDQ60801

Issued at 3:52 pm EST Wednesday 21 November 2018 (issued every 10 minutes, with the page automatically refreshed every 10 minutes)

About weather observations | Map of weather stations | Latest weather observations for QLD | Other Formats
Station Details ID: 033210 Name: ST LAWRENCE Lat: -22.35 Lon: 149.52 Height: 9.19 m
Data from the previous 72 hours. | See also: Recent months at St Lawrence
Date/Time
EST
Temp
°C
App
Temp
°C
Dew
Point
°C
Rel
Hum
%
Delta-T
°C
Wind Press
QNH
hPa
Press
MSL
hPa
Rain since
9am
mm
Dir  Spd
km/h
Gust
km/h
Spd
kts
Gust
kts
21/03:30pm 29.0 27.0 19.9 58 6.0 NNE 30 41 16 22 1007.5 1007.4 0.0
21/03:00pm 29.6 28.1 20.2 57 6.2 NNE 28 44 15 24 1007.9 1007.8 0.0
21/02:30pm 29.6 28.3 19.9 56 6.4 NNE 26 37 14 20 1008.3 1008.2 0.0
21/02:00pm 29.6 28.1 20.2 57 6.2 NNE 28 39 15 21 1008.5 1008.4 0.0
21/01:30pm 29.2 26.7 19.8 57 6.2 NNE 32 43 17 23 1008.7 1008.6 0.0
21/01:00pm 29.7 27.6 19.7 55 6.6 NE 30 41 16 22 1009.5 1009.4 0.0
21/12:30pm 29.4 27.3 19.7 56 6.3 NE 30 41 16 22 1010.1 1010.0 0.0
21/12:00pm 29.9 28.1 19.6 54 6.7 NNE 28 41 15 22 1010.5 1010.4 0.0
21/11:30am 29.2 27.1 19.8 57 6.2 NNE 30 43 16 23 1011.2 1011.1 0.0
21/11:00am 29.6 27.9 19.9 56 6.4 NNE 28 37 15 20 1011.5 1011.4 0.0
21/10:30am 29.2 27.0 19.5 56 6.3 NNE 30 39 16 21 1011.8 1011.7 0.0
21/10:00am 28.5 27.0 19.4 57 5.9 NNE 26 35 14 19 1012.2 1012.1 0.0
21/09:30am 28.9 28.1 20.1 59 5.8 N 24 33 13 18 1012.3 1012.2 0.0
21/09:00am 27.3 26.0 19.1 61 5.3 N 24 39 13 21 1012.6 1012.5 0.0
21/08:30am 27.0 26.9 19.9 65 4.6 N 20 30 11 16 1012.8 1012.7 0.0
21/08:00am 26.4 26.0 19.3 65 4.6 N 20 32 11 17 1012.8 1012.7 0.0
21/07:30am 25.9 26.2 19.5 68 4.1 NNW 17 22 9 12 1012.8 1012.7 0.0
21/07:00am 24.8 27.1 19.4 72 3.5 NNW 6 9 3 5 1012.7 1012.6 0.0
21/06:30am 22.4 25.4 18.4 78 2.5 CALM 0 0 0 0 1012.3 1012.2 0.0
21/06:00am 21.2 23.8 17.6 80 2.2 CALM 0 0 0 0 1012.0 1011.9 0.0
21/05:30am 21.5 24.2 17.7 79 2.3 CALM 0 0 0 0 1011.7 1011.6 0.0
21/05:00am 21.8 24.5 17.8 78 2.5 CALM 0 0 0 0 1011.5 1011.4 0.0
21/04:30am 22.8 25.7 18.1 75 2.9 CALM 0 0 0 0 1011.2 1011.1 0.0
21/04:00am 22.4 25.3 18.2 77 2.6 CALM 0 0 0 0 1011.2 1011.1 0.0
21/03:30am 22.2 23.6 17.8 76 2.7 W 7 11 4 6 1011.1 1011.0 0.0
21/03:00am 24.1 25.1 18.7 72 3.4 NNE 11 17 6 9 1011.2 1011.1 0.0
21/02:30am 23.9 24.8 18.3 71 3.5 NNE 11 19 6 10 1011.2 1011.1 0.0
21/02:00am 24.0 24.4 18.2 70 3.6 NNE 13 17 7 9 1011.4 1011.3 0.0
21/01:30am 24.3 25.4 18.9 72 3.4 NNE 11 17 6 9 1011.3 1011.2 0.0
21/01:00am 24.5 24.3 18.4 69 3.9 NNE 17 20 9 11 1011.6 1011.5 0.0
21/12:30am 24.8 25.1 18.7 69 3.9 NNE 15 22 8 12 1012.1 1012.0 0.0
21/12:00am 24.6 25.2 18.5 69 3.9 NE 13 19 7 10 1012.5 1012.4 0.0
 
Date/Time
EST
Temp
°C
App
Temp
°C
Dew
Point
°C
Rel
Hum
%
Delta-T
°C
Wind Press
QNH
hPa
Press
MSL
hPa
Rain since
9am
mm
Dir  Spd
km/h
Gust
km/h
Spd
kts
Gust
kts
20/11:30pm 24.7 24.6 17.9 66 4.3 NNE 15 20 8 11 1012.8 1012.7 0.0
20/11:00pm 24.7 24.2 17.9 66 4.3 NNE 17 20 9 11 1013.0 1012.9 0.0
20/10:30pm 24.8 24.9 18.3 67 4.1 NE 15 22 8 12 1013.2 1013.1 0.0
20/10:00pm 24.7 24.2 17.7 65 4.4 NE 17 24 9 13 1013.3 1013.2 0.0
20/09:30pm 24.7 23.6 17.2 63 4.7 NE 19 28 10 15 1013.3 1013.2 0.0
20/09:00pm 24.7 23.8 16.9 62 4.8 NE 17 24 9 13 1013.2 1013.1 0.0
20/08:30pm 24.7 24.1 16.7 61 4.9 NE 15 24 8 13 1012.8 1012.7 0.0
20/08:00pm 24.7 24.1 16.7 61 4.9 NE 15 26 8 14 1012.6 1012.5 0.0
20/07:30pm 24.8 24.0 17.0 62 4.8 NE 17 24 9 13 1012.4 1012.3 0.0
20/07:00pm 24.9 23.8 17.4 63 4.7 NE 19 26 10 14 1012.4 1012.3 0.0
20/06:30pm 25.1 23.7 17.1 61 5.0 NE 20 32 11 17 1012.0 1011.9 0.0
20/06:00pm 25.6 24.1 17.8 62 4.9 NE 22 32 12 17 1011.8 1011.7 0.0
20/05:30pm 26.1 24.2 17.7 60 5.3 NE 24 32 13 17 1011.7 1011.6 0.0
20/05:00pm 26.6 24.7 17.7 58 5.6 NNE 24 33 13 18 1011.4 1011.3 0.0
20/04:30pm 27.7 26.0 18.1 56 6.1 NE 24 33 13 18 1011.4 1011.3 0.0
20/04:00pm 27.4 25.7 17.3 54 6.3 NE 22 28 12 15 1011.6 1011.5 0.0
20/03:30pm 27.7 26.0 17.3 53 6.5 NE 22 33 12 18 1011.7 1011.6 0.0
20/03:00pm 28.0 26.0 17.5 52 6.6 NNE 24 32 13 17 1011.9 1011.8 0.0
20/02:30pm 28.9 27.3 17.4 49 7.3 NNE 22 32 12 17 1012.1 1012.0 0.0
20/02:00pm 28.7 27.3 17.9 52 6.9 NNE 22 30 12 16 1012.5 1012.4 0.0
20/01:30pm 28.4 26.9 17.6 52 6.8 NNE 22 32 12 17 1012.8 1012.7 0.0
20/01:00pm 28.4 27.0 17.0 50 7.1 NNE 20 30 11 16 1013.2 1013.1 0.0
20/12:30pm 29.3 28.4 18.1 51 7.2 NNE 20 30 11 16 1013.5 1013.4 0.0
20/12:00pm 28.1 26.1 17.3 52 6.8 NNE 24 33 13 18 1013.9 1013.8 0.0
20/11:30am 29.3 28.7 18.4 51 7.0 NE 19 26 10 14 1014.3 1014.2 0.0
20/11:00am 28.2 27.0 17.4 52 6.8 NNE 20 26 11 14 1014.8 1014.7 0.0
20/10:30am 28.4 27.3 17.3 51 7.0 NNE 19 24 10 13 1015.1 1015.0 0.0
20/10:00am 27.6 27.4 17.7 54 6.2 NE 15 22 8 12 1015.6 1015.5 0.0
20/09:30am 26.5 26.4 17.8 58 5.5 NNE 15 22 8 12 1015.9 1015.8 0.0
20/09:00am 26.5 26.3 17.6 58 5.6 NNE 15 19 8 10 1016.2 1016.1 0.4
20/08:30am 26.3 26.4 17.4 58 5.6 NE 13 19 7 10 1016.3 1016.2 0.4
20/08:00am 25.3 26.3 17.7 62 4.8 SE 9 15 5 8 1016.3 1016.2 0.4
20/07:30am 24.0 24.5 17.5 67 4.0 SSE 11 15 6 8 1016.2 1016.1 0.4
20/07:00am 23.5 24.4 17.5 69 3.7 SSE 9 15 5 8 1015.9 1015.8 0.4
20/06:30am 22.8 23.7 17.5 72 3.3 SSE 9 13 5 7 1015.6 1015.5 0.4
20/06:00am 22.6 23.1 17.5 73 3.2 SSE 11 13 6 7 1015.3 1015.2 0.4
20/05:30am 22.3 23.5 17.4 74 3.0 SSE 7 13 4 7 1015.1 1015.0 0.4
20/05:00am 22.8 23.4 16.8 69 3.7 ESE 9 15 5 8 1014.8 1014.7 0.4
20/04:30am 23.9 24.9 16.9 65 4.3 E 7 15 4 8 1014.5 1014.4 0.4
20/04:00am 24.0 24.8 17.3 66 4.2 ENE 9 15 5 8 1014.4 1014.3 0.4
20/03:30am 23.7 24.4 17.0 66 4.1 ENE 9 15 5 8 1014.3 1014.2 0.4
20/03:00am 24.0 24.7 17.0 65 4.3 ENE 9 17 5 9 1014.3 1014.2 0.4
20/02:30am 24.1 24.0 16.9 64 4.4 ENE 13 19 7 10 1014.6 1014.5 0.4
20/02:00am 24.1 24.1 17.1 65 4.3 E 13 19 7 10 1014.6 1014.5 0.4
20/01:30am 24.2 23.7 17.0 64 4.4 ENE 15 22 8 12 1014.6 1014.5 0.4
20/01:00am 24.2 24.6 17.2 65 4.3 ENE 11 17 6 9 1015.0 1014.9 0.4
20/12:30am 24.2 24.6 17.2 65 4.3 ENE 11 19 6 10 1015.2 1015.1 0.4
20/12:00am 24.4 24.0 17.1 63 4.5 ENE 15 24 8 13 1015.6 1015.5 0.4
 
Date/Time
EST
Temp
°C
App
Temp
°C
Dew
Point
°C
Rel
Hum
%
Delta-T
°C
Wind Press
QNH
hPa
Press
MSL
hPa
Rain since
9am
mm
Dir  Spd
km/h
Gust
km/h
Spd
kts
Gust
kts
19/11:30pm 24.4 24.0 17.1 63 4.5 ENE 15 22 8 12 1015.7 1015.6 0.4
19/11:00pm 24.3 24.3 17.3 65 4.3 ENE 13 20 7 11 1016.0 1015.9 0.4
19/10:30pm 24.5 24.7 17.7 66 4.2 E 13 22 7 12 1016.3 1016.2 0.4
19/10:00pm 24.4 24.9 17.4 65 4.3 ENE 11 19 6 10 1016.2 1016.1 0.4
19/09:30pm 24.5 24.4 17.0 63 4.6 ENE 13 22 7 12 1016.0 1015.9 0.4
19/09:00pm 24.6 24.6 17.1 63 4.6 E 13 20 7 11 1015.9 1015.8 0.4
19/08:30pm 24.6 24.3 17.3 64 4.5 E 15 22 8 12 1015.6 1015.5 0.4
19/08:00pm 24.8 24.6 17.5 64 4.5 E 15 28 8 15 1015.3 1015.2 0.4
19/07:30pm 25.0 24.8 17.7 64 4.6 ENE 15 24 8 13 1015.0 1014.9 0.4
19/07:00pm 25.2 24.7 17.9 64 4.6 ENE 17 30 9 16 1014.6 1014.5 0.4
19/06:30pm 25.4 25.2 18.6 66 4.3 ENE 17 28 9 15 1014.4 1014.3 0.4
19/06:00pm 25.5 25.0 18.7 66 4.3 ENE 19 30 10 16 1014.2 1014.1 0.4
19/05:30pm 25.9 25.2 18.3 63 4.8 ENE 19 30 10 16 1013.8 1013.7 0.4
19/05:00pm 26.4 26.3 18.8 63 4.9 E 17 28 9 15 1013.4 1013.3 0.4
19/04:30pm 26.5 26.0 18.6 62 5.0 E 19 32 10 17 1013.5 1013.4 0.4
19/04:00pm 26.4 26.3 18.8 63 4.9 ENE 17 28 9 15 1013.4 1013.3 0.4
19/03:30pm 25.6 26.9 20.8 75 3.2 NE 15 20 8 11 1013.5 1013.4 0.2
19/03:00pm 26.2 26.4 19.3 65 4.4 ENE 17 32 9 17 1013.4 1013.3 0.2
19/02:30pm 26.3 26.1 20.6 71 3.7 NE 22 33 12 18 1013.3 1013.2 0.0
19/02:00pm 29.9 28.5 19.6 54 6.7 NNE 26 37 14 20 1013.1 1013.0 0.0
19/01:30pm 29.7 29.1 18.8 52 7.0 NNE 20 32 11 17 1013.4 1013.3 0.0
19/01:00pm 29.9 29.4 19.0 52 7.1 NNE 20 32 11 17 1013.7 1013.6 0.0
19/12:30pm 30.1 29.2 18.2 49 7.6 NNE 20 30 11 16 1014.0 1013.9 0.0
19/12:00pm 29.0 27.8 17.5 49 7.3 NNE 20 30 11 16 1014.2 1014.1 0.0
19/11:30am 29.4 28.9 19.1 54 6.7 NNE 20 30 11 16 1014.5 1014.4 0.0
19/11:00am 28.7 27.4 17.2 49 7.2 NE 20 28 11 15 1014.8 1014.7 0.0
19/10:30am 30.9 31.3 18.9 48 7.8 ENE 15 24 8 13 1015.2 1015.1 0.0
19/10:00am 29.0 28.9 17.8 50 7.1 ENE 15 26 8 14 1015.5 1015.4 0.0
19/09:30am 28.3 28.7 19.0 57 6.0 E 15 24 8 13 1015.7 1015.6 0.0
19/09:00am 26.7 27.0 18.8 62 5.1 E 15 24 8 13 1015.8 1015.7 0.0
19/08:30am 26.0 26.4 18.9 65 4.5 E 15 24 8 13 1015.5 1015.4 0.0
19/08:00am 26.5 28.2 19.4 65 4.6 ESE 9 17 5 9 1015.7 1015.6 0.0
19/07:30am 25.2 26.3 18.9 68 4.0 SE 11 19 6 10 1015.7 1015.6 0.0
19/07:00am 24.7 26.6 18.9 70 3.7 SE 7 11 4 6 1015.4 1015.3 0.0
19/06:30am 23.4 25.1 18.5 74 3.1 S 7 11 4 6 1015.3 1015.2 0.0
19/06:00am 22.7 25.6 18.3 76 2.8 CALM 0 0 0 0 1015.1 1015.0 0.0
19/05:30am 22.7 25.6 18.3 76 2.8 CALM 0 0 0 0 1014.9 1014.8 0.0
19/05:00am 22.8 25.4 18.3 76 2.8 ESE 2 6 1 3 1014.8 1014.7 0.0
19/04:30am 22.9 25.1 18.4 76 2.8 SE 4 9 2 5 1014.6 1014.5 0.0
19/04:00am 22.9 24.6 18.4 76 2.8 SE 7 11 4 6 1014.3 1014.2 0.0
19/03:30am 23.1 23.5 18.2 74 3.1 SSE 13 17 7 9 1014.5 1014.4 0.0
19/03:00am 23.8 25.1 18.4 72 3.4 SSE 9 13 5 7 1014.7 1014.6 0.0
19/02:30am 23.9 25.6 18.5 72 3.4 SSE 7 13 4 7 1014.9 1014.8 0.0
19/02:00am 24.0 24.9 18.4 71 3.5 SE 11 15 6 8 1014.9 1014.8 0.0
19/01:30am 24.1 25.5 18.7 72 3.4 SE 9 15 5 8 1015.1 1015.0 0.0
19/01:00am 24.0 25.4 18.6 72 3.4 SSE 9 17 5 9 1015.3 1015.2 0.0
19/12:30am 24.3 24.9 18.7 71 3.6 SE 13 20 7 11 1015.7 1015.6 0.0
19/12:00am 25.0 26.1 18.9 69 3.9 SE 11 17 6 9 1015.9 1015.8 0.0
 
Date/Time
EST
Temp
°C
App
Temp
°C
Dew
Point
°C
Rel
Hum
%
Delta-T
°C
Wind Press
QNH
hPa
Press
MSL
hPa
Rain since
9am
mm
Dir  Spd
km/h
Gust
km/h
Spd
kts
Gust
kts
18/11:30pm 25.3 26.3 18.7 67 4.2 E 11 17 6 9 1015.8 1015.7 0.0
18/11:00pm 25.2 26.0 19.1 69 3.9 ENE 13 22 7 12 1015.7 1015.6 0.0
18/10:30pm 25.2 25.9 18.9 68 4.0 ENE 13 22 7 12 1015.6 1015.5 0.0
18/10:00pm 25.3 26.5 19.0 68 4.0 ENE 11 20 6 11 1015.3 1015.2 0.0
18/09:30pm 25.3 26.2 19.2 69 3.9 ENE 13 26 7 14 1014.8 1014.7 0.0
18/09:00pm 25.5 25.8 19.6 70 3.8 NE 17 24 9 13 1014.4 1014.3 0.0
18/08:30pm 25.6 26.2 19.5 69 3.9 NE 15 24 8 13 1014.3 1014.2 0.0
18/08:00pm 25.6 25.2 18.8 66 4.3 NE 19 30 10 16 1014.0 1013.9 0.0
18/07:30pm 25.7 25.7 18.9 66 4.3 NE 17 28 9 15 1013.7 1013.6 0.0
18/07:00pm 25.9 25.4 19.1 66 4.4 NE 20 30 11 16 1013.3 1013.2 0.0
18/06:30pm 26.2 25.3 19.1 65 4.6 NE 22 33 12 18 1012.9 1012.8 0.0
18/06:00pm 26.1 25.0 19.5 67 4.3 NE 24 32 13 17 1012.5 1012.4 0.0
18/05:30pm 26.8 25.5 19.9 66 4.5 NE 26 35 14 19 1012.2 1012.1 0.0
18/05:00pm 27.4 26.0 19.7 63 5.0 NNE 26 35 14 19 1012.0 1011.9 0.0
18/04:30pm 27.8 27.2 20.4 64 4.9 NNE 24 35 13 19 1012.0 1011.9 0.0
18/04:00pm 28.4 26.9 20.2 61 5.4 NNE 28 39 15 21 1011.6 1011.5 0.0

Other Formats:

Comma delimited format used in spreadsheet applications
http://www.bom.gov.au/fwo/IDQ60801/IDQ60801.95369.axf

JavaScript Object Notation format (JSON) in row-major order
http://www.bom.gov.au/fwo/IDQ60801/IDQ60801.95369.json